createdAt,value
2022-09-27T00:01:47.548Z,97213.31
2022-09-27T00:04:14.553Z,97195.28
2022-09-27T00:06:41.539Z,97198.84
2022-09-27T00:09:08.559Z,97195.28
2022-09-27T00:11:37.269Z,97184.66
2022-09-27T00:14:04.435Z,97182.19
2022-09-27T00:16:33.620Z,97178.63
2022-09-27T00:19:01.842Z,97174.25
2022-09-27T00:21:30.297Z,97178.13
2022-09-27T00:23:57.679Z,97180.84
2022-09-27T00:26:24.643Z,97166.34
2022-09-27T00:28:51.912Z,97168.28
2022-09-27T00:31:23.939Z,97163.63
2022-09-27T00:33:52.126Z,97157.34
2022-09-27T00:36:19.941Z,97159.78
2022-09-27T00:38:47.231Z,97161.72
2022-09-27T00:41:17.010Z,97160.59
2022-09-27T00:43:49.622Z,97149.66
2022-09-27T00:46:21.798Z,97152.69
2022-09-27T00:48:49.005Z,97153.50
2022-09-27T00:51:16.466Z,97145.59
2022-09-27T00:53:46.798Z,97145.59
2022-09-27T00:56:17.362Z,97137.66
2022-09-27T00:58:47.055Z,97135.22
2022-09-27T01:01:14.473Z,97131.69
2022-09-27T01:03:50.079Z,97127.31
2022-09-27T01:06:17.635Z,97132.75
2022-09-27T01:09:07.249Z,97126.75
2022-09-27T01:12:07.178Z,97125.13
2022-09-27T01:15:33.007Z,97121.59
2022-09-27T01:18:22.411Z,97124.31
2022-09-27T01:21:41.851Z,97111.47
2022-09-27T01:24:29.737Z,97100.53
2022-09-27T01:27:06.171Z,97106.00
2022-09-27T01:29:33.803Z,97102.16
2022-09-27T01:32:08.632Z,97093.97
2022-09-27T01:35:03.480Z,97095.88
2022-09-27T01:38:07.564Z,97081.69
2022-09-27T01:40:57.106Z,97081.69
2022-09-27T01:43:55.931Z,97076.50
2022-09-27T01:46:32.456Z,97074.88
2022-09-27T01:48:59.475Z,97070.50
2022-09-27T01:51:31.201Z,97075.16
2022-09-27T01:54:00.317Z,97072.69
2022-09-27T01:56:31.224Z,97066.41
2022-09-27T01:59:07.590Z,97060.13
2022-09-27T02:01:34.732Z,97066.72
2022-09-27T02:04:02.135Z,97058.50
2022-09-27T02:06:36.277Z,97051.41
2022-09-27T02:09:09.586Z,97048.69
2022-09-27T02:11:39.268Z,97053.06
2022-09-27T02:14:16.133Z,97047.59
2022-09-27T02:16:58.272Z,97049.19
2022-09-27T02:19:46.466Z,97042.13
2022-09-27T02:22:19.044Z,97044.03
2022-09-27T02:24:54.986Z,97035.84
2022-09-27T02:27:27.742Z,97032.28
2022-09-27T02:30:13.609Z,97019.72
2022-09-27T02:32:40.598Z,97034.47
2022-09-27T02:35:23.360Z,97030.91
2022-09-27T02:37:50.291Z,97028.50
2022-09-27T02:40:17.533Z,97027.66
2022-09-27T02:42:44.564Z,97025.22
2022-09-27T02:45:12.312Z,97018.09
2022-09-27T02:47:57.704Z,97017.31
2022-09-27T02:50:33.764Z,97009.38
2022-09-27T02:53:12.802Z,97008.56
2022-09-27T02:56:04.034Z,97015.94
2022-09-27T02:58:43.320Z,97011.31
2022-09-27T03:01:16.065Z,97023.06
2022-09-27T03:03:53.762Z,97014.84
2022-09-27T03:06:21.314Z,97007.47
2022-09-27T03:08:48.329Z,97000.09
2022-09-27T03:11:15.568Z,97003.66
2022-09-27T03:14:06.917Z,96989.19
2022-09-27T03:16:30.922Z,96995.72
2022-09-27T03:18:57.925Z,96996.00
2022-09-27T03:21:24.815Z,96994.38
2022-09-27T03:23:51.767Z,96993.56
2022-09-27T03:26:18.681Z,96992.75
2022-09-27T03:28:45.663Z,96991.94
2022-09-27T03:31:12.625Z,96996.84
2022-09-27T03:33:39.593Z,96994.44
2022-09-27T03:36:07.387Z,97001.50
2022-09-27T03:38:34.350Z,96988.97
2022-09-27T03:41:01.344Z,96985.41
2022-09-27T03:43:28.344Z,96985.41
2022-09-27T03:45:55.359Z,96990.88
2022-09-27T03:48:25.832Z,96985.41
2022-09-27T03:50:54.966Z,96999.06
2022-09-27T03:53:21.941Z,96994.44
2022-09-27T03:55:48.890Z,96987.31
2022-09-27T03:58:15.945Z,96988.13
2022-09-27T04:00:44.306Z,96986.22
2022-09-27T04:03:12.350Z,96984.59
2022-09-27T04:05:39.335Z,96987.59
2022-09-27T04:08:11.278Z,96973.13
2022-09-27T04:10:38.424Z,96975.03
2022-09-27T04:13:05.725Z,96972.59
2022-09-27T04:15:32.696Z,96981.06
2022-09-27T04:17:59.664Z,96973.97
2022-09-27T04:20:26.631Z,96968.50
2022-09-27T04:22:53.608Z,96961.41
2022-09-27T04:25:20.589Z,96957.88
2022-09-27T04:27:48.564Z,96965.25
2022-09-27T04:30:15.886Z,96973.44
2022-09-27T04:32:43.733Z,96971.81
2022-09-27T04:35:30.077Z,96969.91
2022-09-27T04:37:57.218Z,96964.44
2022-09-27T04:40:24.363Z,96970.72
2022-09-27T04:42:51.889Z,96958.66
2022-09-27T04:45:19.363Z,96958.66
2022-09-27T04:47:46.974Z,96957.56
2022-09-27T04:50:14.224Z,96954.84
2022-09-27T04:52:41.244Z,96957.56
2022-09-27T04:55:09.276Z,96955.16
2022-09-27T04:57:36.333Z,96954.31
2022-09-27T05:00:04.365Z,96953.50
2022-09-27T05:02:31.724Z,96943.69
2022-09-27T05:04:59.596Z,96945.59
2022-09-27T05:07:27.142Z,96943.94
2022-09-27T05:09:54.053Z,96943.94
2022-09-27T05:12:21.288Z,96946.16
2022-09-27T05:14:48.300Z,96946.16
2022-09-27T05:17:15.273Z,96939.06
2022-09-27T05:19:42.284Z,96938.25
2022-09-27T05:22:09.199Z,96931.16
2022-09-27T05:24:38.608Z,96929.53
2022-09-27T05:27:08.435Z,96934.69
2022-09-27T05:29:35.537Z,96932.78
2022-09-27T05:32:02.755Z,96933.59
2022-09-27T05:34:29.757Z,96935.25
2022-09-27T05:36:56.677Z,96931.69
2022-09-27T05:39:23.641Z,96919.69
2022-09-27T05:44:22.389Z,96929.47
2022-09-27T05:46:51.449Z,96922.69
2022-09-27T05:49:18.428Z,96924.31
2022-09-27T05:51:45.349Z,96923.78
2022-09-27T05:54:12.307Z,96922.94
2022-09-27T05:56:39.244Z,96926.81
2022-09-27T05:59:06.292Z,96924.88
2022-09-27T06:01:33.320Z,96927.09
2022-09-27T06:04:00.271Z,96921.63
2022-09-27T06:06:27.263Z,96921.63
2022-09-27T06:08:54.282Z,96919.97
2022-09-27T06:11:21.234Z,96917.25
2022-09-27T06:13:48.169Z,96932.00
2022-09-27T06:16:15.284Z,96936.34
2022-09-27T06:18:43.086Z,96938.00
2022-09-27T06:21:10.071Z,96939.63
2022-09-27T06:23:37.515Z,96942.38
2022-09-27T06:26:06.006Z,96933.06
2022-09-27T06:28:35.718Z,96925.69
2022-09-27T06:31:02.815Z,96934.69
2022-09-27T06:33:29.831Z,96933.59
2022-09-27T06:35:56.910Z,96933.59
2022-09-27T06:38:25.148Z,96925.41
2022-09-27T06:40:52.185Z,96926.22
2022-09-27T06:43:20.781Z,96928.97
2022-09-27T06:45:48.488Z,96924.59
2022-09-27T06:48:17.626Z,96921.88
2022-09-27T06:50:45.404Z,96917.22
2022-09-27T06:53:14.100Z,96915.31
2022-09-27T06:55:41.195Z,96912.84
2022-09-27T06:58:26.815Z,96908.22
2022-09-27T07:00:54.003Z,96909.31
2022-09-27T07:03:23.205Z,96905.47
2022-09-27T07:05:57.497Z,96904.66
2022-09-27T07:08:26.722Z,96906.28
2022-09-27T07:10:55.722Z,96897.84
2022-09-27T07:13:22.706Z,96893.19
2022-09-27T07:15:49.633Z,96892.06
2022-09-27T07:18:16.616Z,96890.97
2022-09-27T07:20:43.525Z,96886.34
2022-09-27T07:23:10.987Z,96879.78
2022-09-27T07:25:37.932Z,96882.50
2022-09-27T07:28:09.925Z,96891.53
2022-09-27T07:30:37.505Z,96892.63
2022-09-27T07:33:05.389Z,96902.44
2022-09-27T07:35:32.505Z,96897.81
2022-09-27T07:37:59.582Z,96900.53
2022-09-27T07:40:26.886Z,96901.31
2022-09-27T07:42:57.237Z,96897.81
2022-09-27T07:45:24.819Z,96902.97
2022-09-27T07:47:51.731Z,96902.97
2022-09-27T07:50:18.758Z,96904.59
2022-09-27T07:52:47.369Z,96895.59
2022-09-27T07:55:15.016Z,96889.84
2022-09-27T07:57:42.051Z,96888.22
2022-09-27T08:00:11.200Z,96889.03
2022-09-27T08:02:38.175Z,96884.91
2022-09-27T08:05:05.461Z,96880.56
2022-09-27T08:07:33.156Z,96881.06
2022-09-27T08:10:00.366Z,96880.25
2022-09-27T08:12:27.339Z,96879.16
2022-09-27T08:14:54.964Z,96874.53
2022-09-27T08:17:21.935Z,96874.53
2022-09-27T08:19:50.085Z,96871.78
2022-09-27T08:22:17.100Z,96875.34
2022-09-27T08:24:44.032Z,96871.78
2022-09-27T08:27:12.153Z,96878.88
2022-09-27T08:29:42.107Z,96876.16
2022-09-27T08:32:10.046Z,96876.97
2022-09-27T08:34:37.178Z,96871.50
2022-09-27T08:37:04.312Z,96866.84
2022-09-27T08:39:31.687Z,96866.84
2022-09-27T08:42:03.918Z,96863.84
2022-09-27T08:44:51.342Z,96862.75
2022-09-27T08:47:19.035Z,96863.00
2022-09-27T08:50:09.371Z,96855.38
2022-09-27T08:52:41.590Z,96857.00
2022-09-27T08:55:43.833Z,96854.28
2022-09-27T08:58:32.401Z,96853.16
2022-09-27T09:01:06.903Z,96848.22
2022-09-27T09:03:38.468Z,96845.50
2022-09-27T09:06:32.778Z,96846.59
2022-09-27T09:09:33.503Z,96842.75
2022-09-27T09:12:28.018Z,96845.50
2022-09-27T09:15:13.157Z,96835.38
2022-09-27T09:17:44.828Z,96829.09
2022-09-27T09:20:17.665Z,96829.94
2022-09-27T09:23:06.761Z,96819.00
2022-09-27T09:26:27.800Z,96815.16
2022-09-27T09:29:04.472Z,96804.25
2022-09-27T09:31:52.065Z,96809.41
2022-09-27T09:34:40.937Z,96803.94
2022-09-27T09:37:31.390Z,96794.66
2022-09-27T09:40:01.633Z,96799.03
2022-09-27T09:42:31.699Z,96789.72
2022-09-27T09:45:02.686Z,96795.19
2022-09-27T09:47:37.139Z,96783.13
2022-09-27T09:50:14.642Z,96778.50
2022-09-27T09:52:44.359Z,96775.75
2022-09-27T09:55:23.911Z,96771.13
2022-09-27T09:58:03.093Z,96762.63
2022-09-27T10:00:30.158Z,96757.19
2022-09-27T10:03:01.760Z,96761.53
2022-09-27T10:05:28.838Z,96758.81
2022-09-27T10:08:01.164Z,96762.34
2022-09-27T10:10:28.192Z,96765.06
2022-09-27T10:12:55.434Z,96759.59
2022-09-27T10:15:24.150Z,96759.59
2022-09-27T10:17:53.803Z,96762.34
2022-09-27T10:20:46.828Z,96753.03
2022-09-27T10:23:16.391Z,96750.31
2022-09-27T10:25:52.656Z,96746.47
2022-09-27T10:28:39.854Z,96748.41
2022-09-27T10:31:12.687Z,96753.56
2022-09-27T10:34:00.037Z,96747.00
2022-09-27T10:36:31.229Z,96746.72
2022-09-27T10:39:00.913Z,96734.13
2022-09-27T10:41:35.379Z,96736.59
2022-09-27T10:44:20.255Z,96735.50
2022-09-27T10:46:49.564Z,96738.22
2022-09-27T10:49:26.203Z,96730.84
2022-09-27T10:52:01.349Z,96716.38
2022-09-27T10:54:32.639Z,96723.47
2022-09-27T10:57:23.320Z,96723.97
2022-09-27T10:59:56.756Z,96725.06
2022-09-27T11:02:28.094Z,96725.88
2022-09-27T11:05:15.767Z,96728.34
2022-09-27T11:07:56.607Z,96719.06
2022-09-27T11:10:31.149Z,96712.78
2022-09-27T11:13:14.716Z,96713.59
2022-09-27T11:15:56.704Z,96714.41
2022-09-27T11:18:51.024Z,96698.00
2022-09-27T11:21:41.729Z,96708.63
2022-09-27T11:24:23.467Z,96700.44
2022-09-27T11:27:00.855Z,96702.06
2022-09-27T11:29:37.637Z,96705.63
2022-09-27T11:32:35.425Z,96699.88
2022-09-27T11:35:19.630Z,96694.41
2022-09-27T11:38:34.564Z,96698.75
2022-09-27T11:41:50.524Z,96696.00
2022-09-27T11:44:35.592Z,96690.25
2022-09-27T11:47:12.283Z,96694.09
2022-09-27T11:50:00.216Z,96678.50
2022-09-27T11:52:49.990Z,96675.78
2022-09-27T11:55:38.294Z,96671.13
2022-09-27T11:58:08.804Z,96675.78
2022-09-27T12:00:45.329Z,96671.94
2022-09-27T12:03:47.561Z,96670.03
2022-09-27T12:06:21.411Z,96679.88
2022-09-27T12:09:03.500Z,96674.41
2022-09-27T12:11:44.403Z,96665.06
2022-09-27T12:14:38.769Z,96668.63
2022-09-27T12:17:30.060Z,96671.34
2022-09-27T12:19:59.011Z,96662.09
2022-09-27T12:22:57.027Z,96660.41
2022-09-27T12:25:21.063Z,96659.34
2022-09-27T12:28:02.695Z,96652.22
2022-09-27T12:30:30.894Z,96655.78
2022-09-27T12:33:18.899Z,96652.22
2022-09-27T12:35:55.487Z,96646.75
2022-09-27T12:39:12.647Z,96648.66
2022-09-27T12:41:41.529Z,96654.44
2022-09-27T12:44:10.701Z,96645.44
2022-09-27T12:47:06.845Z,96647.84
2022-09-27T12:49:43.533Z,96647.06
2022-09-27T12:52:12.758Z,96640.78
2022-09-27T12:54:55.132Z,96640.78
2022-09-27T12:57:45.119Z,96640.78
2022-09-27T13:00:15.372Z,96630.94
2022-09-27T13:03:14.582Z,96631.44
2022-09-27T13:06:13.648Z,96634.50
2022-09-27T13:08:54.455Z,96636.91
2022-09-27T13:11:26.959Z,96633.69
2022-09-27T13:13:57.536Z,96633.69
2022-09-27T13:16:25.798Z,96639.16
2022-09-27T13:18:55.218Z,96626.59
2022-09-27T13:21:51.331Z,96631.25
2022-09-27T13:24:43.272Z,96651.19
2022-09-27T13:27:28.425Z,96671.41
2022-09-27T13:30:16.602Z,96658.88
2022-09-27T13:33:14.351Z,96667.06
2022-09-27T13:35:41.300Z,96659.97
2022-09-27T13:38:21.744Z,96660.78
2022-09-27T13:40:49.554Z,96661.59
2022-09-27T13:43:41.790Z,96658.88
2022-09-27T13:46:16.042Z,96651.78
2022-09-27T13:48:50.919Z,96656.16
2022-09-27T13:51:35.936Z,96663.22
2022-09-27T13:54:47.805Z,96659.66
2022-09-27T13:57:41.662Z,96662.13
2022-09-27T14:00:31.780Z,96654.44
2022-09-27T14:03:02.688Z,96660.41
2022-09-27T14:05:48.045Z,96662.09
2022-09-27T14:08:48.769Z,96661.50
2022-09-27T14:11:28.047Z,96654.09
2022-09-27T14:13:55.131Z,96656.84
2022-09-27T14:16:22.331Z,96652.19
2022-09-27T14:18:54.402Z,96654.63
2022-09-27T14:21:38.015Z,96654.63
2022-09-27T14:24:36.934Z,96651.09
2022-09-27T14:27:17.790Z,96663.66
2022-09-27T14:29:56.825Z,96666.38
2022-09-27T14:32:25.606Z,96668.00
2022-09-27T14:35:32.213Z,96662.53
2022-09-27T14:38:15.812Z,96666.91
2022-09-27T14:40:58.999Z,96682.19
2022-09-27T14:43:26.080Z,96718.81
2022-09-27T14:45:54.159Z,96717.72
2022-09-27T14:48:22.440Z,96731.69
2022-09-27T14:51:01.272Z,96731.69
2022-09-27T14:53:35.717Z,96739.06
2022-09-27T14:56:03.104Z,96741.00
2022-09-27T14:58:46.560Z,96739.06
2022-09-27T15:01:17.688Z,96740.69
2022-09-27T15:03:44.950Z,96742.31
2022-09-27T15:06:11.974Z,96740.13
2022-09-27T15:08:39.083Z,96734.06
2022-09-27T15:11:07.803Z,96740.56
2022-09-27T15:13:37.526Z,96739.47
2022-09-27T15:16:20.292Z,96724.41
2022-09-27T15:18:48.866Z,96732.03
2022-09-27T15:21:36.927Z,96726.25
2022-09-27T15:24:04.085Z,96726.47
2022-09-27T15:26:36.138Z,96731.38
2022-09-27T15:29:03.287Z,96733.50
2022-09-27T15:31:31.817Z,96729.38
2022-09-27T15:33:59.327Z,96743.28
2022-09-27T15:36:44.789Z,96739.13
2022-09-27T15:39:12.727Z,96736.94
2022-09-27T15:42:17.813Z,96737.97
2022-09-27T15:44:48.669Z,96733.81
2022-09-27T15:47:39.261Z,96732.44
2022-09-27T15:50:15.394Z,96724.72
2022-09-27T15:52:45.436Z,96729.63
2022-09-27T15:55:13.082Z,96724.66
2022-09-27T15:57:40.937Z,96724.38
2022-09-27T16:00:12.739Z,96735.00
2022-09-27T16:02:39.691Z,96751.94
2022-09-27T16:05:07.157Z,96746.19
2022-09-27T16:07:34.285Z,96750.25
2022-09-27T16:10:01.244Z,96754.34
2022-09-27T16:12:30.482Z,96753.72
2022-09-27T16:14:57.454Z,96755.06
2022-09-27T16:17:24.366Z,96747.06
2022-09-27T16:19:51.320Z,96748.69
2022-09-27T16:22:18.304Z,96748.91
2022-09-27T16:24:45.922Z,96744.25
2022-09-27T16:27:12.914Z,96750.75
2022-09-27T16:29:43.630Z,96750.47
2022-09-27T16:32:11.304Z,96749.41
2022-09-27T16:34:38.417Z,96750.44
2022-09-27T16:37:07.401Z,96752.88
2022-09-27T16:39:34.340Z,96764.31
2022-09-27T16:42:05.210Z,96767.28
2022-09-27T16:44:34.449Z,96757.13
2022-09-27T16:47:01.675Z,96764.47
2022-09-27T16:49:47.957Z,96760.63
2022-09-27T16:52:16.356Z,96769.38
2022-09-27T16:54:43.363Z,96769.56
2022-09-27T16:57:10.397Z,96769.28
2022-09-27T16:59:37.543Z,96772.25
2022-09-27T17:02:05.837Z,96768.06
2022-09-27T17:04:32.802Z,96770.22
2022-09-27T17:06:59.794Z,96768.53
2022-09-27T17:09:26.776Z,96764.06
2022-09-27T17:11:53.736Z,96763.47
2022-09-27T17:14:20.891Z,96771.59
2022-09-27T17:16:47.920Z,96766.84
2022-09-27T17:19:15.828Z,96771.44
2022-09-27T17:21:43.786Z,96770.53
2022-09-27T17:24:10.930Z,96774.59
2022-09-27T17:26:37.893Z,96778.16
2022-09-27T17:29:04.854Z,96784.44
2022-09-27T17:31:33.759Z,96785.56
2022-09-27T17:34:00.917Z,96782.81
2022-09-27T17:36:30.001Z,96789.09
2022-09-27T17:38:58.714Z,96794.28
2022-09-27T17:41:26.015Z,96794.28
2022-09-27T17:43:55.026Z,96788.81
2022-09-27T17:46:23.347Z,96788.28
2022-09-27T17:49:08.958Z,96788.81
2022-09-27T17:51:37.837Z,96784.34
2022-09-27T17:54:05.318Z,96788.94
2022-09-27T17:56:34.979Z,96787.50
2022-09-27T17:59:01.926Z,96793.72
2022-09-27T18:01:29.000Z,96786.00
2022-09-27T18:03:57.046Z,96790.09
2022-09-27T18:06:24.450Z,96789.25
2022-09-27T18:08:51.503Z,96787.63
2022-09-27T18:11:22.369Z,96789.06
2022-09-27T18:13:49.398Z,96795.13
2022-09-27T18:16:17.976Z,96800.59
2022-09-27T18:18:48.390Z,96808.31
2022-09-27T18:21:16.822Z,96799.56
2022-09-27T18:23:44.539Z,96797.97
2022-09-27T18:26:11.977Z,96801.00
2022-09-27T18:28:41.035Z,96805.66
2022-09-27T18:33:57.994Z,96810.13
2022-09-27T18:36:26.103Z,96817.03
2022-09-27T18:38:55.058Z,96816.22
2022-09-27T18:41:22.864Z,96811.84
2022-09-27T18:43:55.474Z,96808.56
2022-09-27T18:46:35.373Z,96809.72
2022-09-27T18:49:04.262Z,96807.25
2022-09-27T18:51:31.297Z,96799.03
2022-09-27T18:54:02.543Z,96804.22
2022-09-27T18:56:29.729Z,96804.72
2022-09-27T18:58:56.938Z,96808.00
2022-09-27T19:01:24.624Z,96810.13
2022-09-27T19:03:51.868Z,96800.47
2022-09-27T19:06:20.394Z,96812.19
2022-09-27T19:08:47.455Z,96805.50
2022-09-27T19:11:15.723Z,96808.19
2022-09-27T19:13:50.887Z,96803.19
2022-09-27T19:16:21.041Z,96803.09
2022-09-27T19:18:48.182Z,96800.91
2022-09-27T19:21:17.262Z,96800.81
2022-09-27T19:23:44.363Z,96807.59
2022-09-27T19:26:15.847Z,96817.47
2022-09-27T19:28:44.226Z,96810.34
2022-09-27T19:31:13.762Z,96806.78
2022-09-27T19:33:40.716Z,96807.41
2022-09-27T19:36:09.817Z,96798.97
2022-09-27T19:38:37.277Z,96801.19
2022-09-27T19:41:05.548Z,96796.81
2022-09-27T19:43:32.580Z,96803.41
2022-09-27T19:46:06.749Z,96801.81
2022-09-27T19:48:33.780Z,96797.72
2022-09-27T19:51:01.097Z,96802.69
2022-09-27T19:53:31.913Z,96806.56
2022-09-27T19:56:03.241Z,96804.06
2022-09-27T19:58:30.548Z,96803.25
2022-09-27T20:01:07.159Z,96809.34
2022-09-27T20:03:34.957Z,96796.75
2022-09-27T20:06:02.215Z,96806.09
2022-09-27T20:08:29.485Z,96801.75
2022-09-27T20:11:06.393Z,96811.34
2022-09-27T20:13:34.318Z,96806.19
2022-09-27T20:16:17.459Z,96796.63
2022-09-27T20:18:46.025Z,96805.19
2022-09-27T20:21:13.099Z,96804.66
2022-09-27T20:23:40.121Z,96809.31
2022-09-27T20:26:14.132Z,96806.06
2022-09-27T20:28:47.918Z,96805.84
2022-09-27T20:31:16.860Z,96810.00
2022-09-27T20:33:44.926Z,96823.16
2022-09-27T20:36:12.816Z,96812.53
2022-09-27T20:38:44.563Z,96827.34
2022-09-27T20:41:12.360Z,96824.06
2022-09-27T20:43:39.642Z,96823.88
2022-09-27T20:46:08.221Z,96821.41
2022-09-27T20:48:35.231Z,96825.56
2022-09-27T20:51:04.675Z,96829.41
2022-09-27T20:53:32.155Z,96825.88
2022-09-27T20:55:59.795Z,96833.56
2022-09-27T20:58:26.852Z,96833.88
2022-09-27T21:00:53.863Z,96837.44
2022-09-27T21:03:21.894Z,96827.06
2022-09-27T21:05:56.140Z,96830.91
2022-09-27T21:08:23.452Z,96833.13
2022-09-27T21:10:52.887Z,96835.38
2022-09-27T21:13:20.103Z,96830.47
2022-09-27T21:15:47.423Z,96828.53
2022-09-27T21:18:14.459Z,96832.69
2022-09-27T21:20:41.404Z,96823.94
2022-09-27T21:23:08.381Z,96822.34
2022-09-27T21:25:35.326Z,96824.28
2022-09-27T21:28:04.444Z,96819.06
2022-09-27T21:30:31.644Z,96826.78
2022-09-27T21:32:58.664Z,96818.88
2022-09-27T21:35:25.568Z,96827.06
2022-09-27T21:37:52.611Z,96817.22
2022-09-27T21:40:19.963Z,96824.63
2022-09-27T21:42:52.397Z,96821.88
2022-09-27T21:45:22.613Z,96817.84
2022-09-27T21:47:49.532Z,96815.38
2022-09-27T21:50:16.663Z,96826.63
2022-09-27T21:52:43.603Z,96837.06
2022-09-27T21:55:10.570Z,96828.31
2022-09-27T21:57:37.531Z,96834.94
2022-09-27T22:00:04.897Z,96823.44
2022-09-27T22:02:31.923Z,96822.91
2022-09-27T22:04:59.876Z,96816.94
2022-09-27T22:07:26.881Z,96826.25
2022-09-27T22:09:53.823Z,96824.94
2022-09-27T22:12:21.623Z,96830.41
2022-09-27T22:14:48.621Z,96832.59
2022-09-27T22:17:15.615Z,96835.31
2022-09-27T22:19:42.566Z,96839.16
2022-09-27T22:22:09.514Z,96831.75
2022-09-27T22:24:36.507Z,96836.41
2022-09-27T22:27:03.860Z,96839.16
2022-09-27T22:29:32.124Z,96848.50
2022-09-27T22:32:00.141Z,96844.63
2022-09-27T22:34:31.752Z,96837.56
2022-09-27T22:36:59.147Z,96846.06
2022-09-27T22:39:26.178Z,96844.13
2022-09-27T22:41:53.116Z,96845.22
2022-09-27T22:44:20.383Z,96844.69
2022-09-27T22:46:47.728Z,96847.75
2022-09-27T22:49:14.780Z,96845.84
2022-09-27T22:51:41.762Z,96848.03
2022-09-27T22:54:08.729Z,96829.16
2022-09-27T22:56:35.708Z,96844.78
2022-09-27T22:59:02.713Z,96833.31
2022-09-27T23:01:29.729Z,96832.78
2022-09-27T23:03:57.393Z,96832.78
2022-09-27T23:06:24.432Z,96831.19
2022-09-27T23:08:51.714Z,96824.06
2022-09-27T23:11:20.724Z,96830.34
2022-09-27T23:13:48.459Z,96820.50
2022-09-27T23:16:17.294Z,96825.97
2022-09-27T23:18:44.712Z,96832.28
2022-09-27T23:21:12.867Z,96834.19
2022-09-27T23:23:41.512Z,96826.28
2022-09-27T23:26:10.899Z,96833.38
2022-09-27T23:28:38.048Z,96828.22
2022-09-27T23:31:09.393Z,96821.94
2022-09-27T23:33:40.700Z,96827.69
2022-09-27T23:36:09.018Z,96829.88
2022-09-27T23:38:36.594Z,96832.63
2022-09-27T23:41:03.580Z,96838.41
2022-09-27T23:43:30.601Z,96831.28
2022-09-27T23:45:57.626Z,96837.88
2022-09-27T23:48:27.975Z,96838.19
2022-09-27T23:50:54.919Z,96828.34
2022-09-27T23:53:22.079Z,96831.34
2022-09-27T23:55:50.218Z,96834.38
2022-09-27T23:58:17.695Z,96829.44
